Rice, Washington
Current Conditions -  °F | °C
As of 11:53 AM on Wednesday 17 Dec 2014 (Local Time) from KDEW Reporting Station
Overcast Overcast  
Wind Chill: 30°   Ceiling: 6000
Heat Index: 37°   Visibility: 10mi
Dew Point: 31°   Wind: 9mph
Humidity: 79%   Direction: 20°NNE
Pressure: 29.92"   Gusts: NA
Location:  48.43°N, 118.17°W
Report Text: KDEW 171953Z AUTO 02008KT 10SM BKN060 OVC070 03/M01 A2992 RMK AO2 SLP150 T00281006
Loading
Personal Weather Stations






























Interactive Weather Map New forecast layout! Learn more

10-Day Weather Forecast

Advertisements
Track Severe Weather on mobile